Flight Track Log - Related Links

Times and Time Zones

All times are in EDT time to prevent confusion due to time zone crossing. See the SWA1618 flight status page for this flight to view local times or setup timezone preferences in your user account.

Time Position Orientation Groundspeed Altitude Reporting Facility
EDT Latitude Longitude Course Direction KTS MPH feet Rate Location/Type
Wed 04:47:57 PM 33.4333 -111.9333 90° East 210 242 3,200  Level Phoenix TRACON
Wed 04:48:57 PM 33.4333 -111.8500 90° East 269 310 5,400 2,331 Climbing Phoenix TRACON
Wed 04:49:58 PM 33.4167 -111.7667 103° East 289 333 7,900 2,087 Climbing Phoenix TRACON
Wed 04:50:52 PM 33.3667 -111.6833 126° Southeast 329 379 9,400 2,421 Climbing Phoenix TRACON
Wed 04:51:52 PM 33.2833 -111.7000 189° South 352 405 12,500 2,607 Climbing Phoenix TRACON
Wed 04:53:17 PM 33.1697 -111.7539 202° Southwest 350 403 15,700 2,178 Climbing Albuquerque Center
Wed 04:54:18 PM 33.0733 -111.7561 181° South 376 433 17,800 2,244 Climbing Albuquerque Center
Wed 04:55:20 PM 32.9972 -111.6389 128° Southeast 375 432 20,300 2,129 Climbing Albuquerque Center
Wed 04:56:22 PM 32.9325 -111.5364 127° Southeast 385 443 22,200 1,742 Climbing Albuquerque Center
Wed 04:57:24 PM 32.8650 -111.4314 127° Southeast 397 457 23,900 1,659 Climbing Albuquerque Center
Wed 04:58:25 PM 32.7964 -111.3244 127° Southeast 406 467 25,600 1,561 Climbing Albuquerque Center
Wed 04:59:27 PM 32.7272 -111.2169 127° Southeast 408 470 27,100 1,355 Climbing Albuquerque Center
Wed 05:00:29 PM 32.6572 -111.1050 127° Southeast 416 479 28,400 1,306 Climbing Albuquerque Center
Wed 05:01:31 PM 32.5694 -110.9689 127° Southeast 430 495 29,800 1,500 Climbing Albuquerque Center
Wed 05:02:33 PM 32.4956 -110.8558 128° Southeast 434 499 31,500 1,561 Climbing Albuquerque Center
Wed 05:03:34 PM 32.4250 -110.7444 127° Southeast 431 496 33,000 1,171 Climbing Albuquerque Center
Wed 05:04:36 PM 32.3528 -110.6347 128° Southeast 424 488 33,900 871 Climbing Albuquerque Center
Wed 05:05:38 PM 32.3083 -110.5075 112° Southeast 431 496 34,800 537 Climbing Albuquerque Center
Wed 05:06:39 PM 32.3064 -110.3617 91° East 440 506 35,000 98 Climbing Albuquerque Center
Wed 05:07:41 PM 32.3036 -110.2022 91° East 456 525 35,000  Level Albuquerque Center
Wed 05:08:43 PM 32.2700 -110.0600 106° East 451 519 35,000  Level Albuquerque Center
Wed 05:09:45 PM 32.2278 -109.8892 106° East 452 520 35,000 -145 Level Albuquerque Center
Wed 05:10:47 PM 32.2006 -109.7536 103° East 438 504 34,700 -581 Descending Albuquerque Center
Wed 05:11:49 PM 32.1742 -109.6156 103° East 436 502 33,800 -829 Descending Albuquerque Center
Wed 05:12:50 PM 32.1436 -109.4733 104° East 443 510 33,000 -390 Descending Albuquerque Center
Wed 05:13:52 PM 32.1153 -109.3292 103° East 450 518 33,000  Level Albuquerque Center
Wed 05:14:54 PM 32.0944 -109.1894 100° East 446 513 33,000  Level Albuquerque Center
Wed 05:15:56 PM 32.0681 -109.0222 101° East 441 507 33,000  Level Albuquerque Center
Wed 05:16:58 PM 32.0456 -108.8850 101° East 435 501 33,000  Level Albuquerque Center
Wed 05:18:00 PM 32.0219 -108.7439 101° East 435 501 33,000  Level Albuquerque Center
Wed 05:19:02 PM 32.0306 -108.5967 86° East 443 510 33,000  Level Albuquerque Center
Wed 05:20:04 PM 32.0386 -108.4494 86° East 448 516 33,000  Level Albuquerque Center
Wed 05:21:05 PM 32.0464 -108.3000 86° East 450 518 33,000  Level Albuquerque Center
Wed 05:22:07 PM 32.0553 -108.1239 87° East 451 519 33,000 -48 Level Albuquerque Center
Wed 05:23:09 PM 32.0561 -107.9792 90° East 449 517 32,900 -1,161 Descending Albuquerque Center
Wed 05:24:11 PM 32.0581 -107.8378 89° East 441 507 30,600 -2,274 Descending Albuquerque Center
Wed 05:25:13 PM 32.0578 -107.6986 90° East 434 499 28,200 -2,274 Descending Albuquerque Center
Wed 05:26:15 PM 32.0583 -107.5650 90° East 423 487 25,900 -2,195 Descending Albuquerque Center
Wed 05:27:16 PM 32.0608 -107.4358 89° East 411 473 23,700 -2,308 Descending Albuquerque Center
Wed 05:28:12 PM 32.0639 -107.3017 88° East 377 434 21,400 -2,432 Descending Albuquerque Center
Wed 05:28:30 PM 32.0639 -107.2642 90° East 374 430 20,700 -2,029 Descending Albuquerque Center
Wed 05:29:20 PM 32.0636 -107.1703 90° East 375 432 19,100 -1,967 Descending Albuquerque Center
Wed 05:29:31 PM 32.0642 -107.1439 89° East 364 419 18,700 -1,839 Descending Albuquerque Center
Wed 05:30:22 PM 32.0639 -107.0556 90° East 361 415 17,200 -1,912 Descending Albuquerque Center
Wed 05:31:24 PM 32.0639 -106.9436 90° East 350 403 15,100 -1,984 Descending Albuquerque Center
Wed 05:32:26 PM 32.0653 -106.8350 89° East 339 390 13,100 -2,049 Descending Albuquerque Center
Wed 05:33:27 PM 32.0425 -106.7186 103° East 314 361 10,900 -1,594 Descending Albuquerque Center
Wed 05:34:34 PM 31.9525 -106.6808 160° South 295 339 9,700 -1,248 Descending Albuquerque Center
Wed 05:35:32 PM 31.8903 -106.6536 160° South 282 325 8,300 -958 Descending Albuquerque Center
Wed 05:36:33 PM 31.8225 -106.6228 159° South 262 302 7,800 -585 Descending Albuquerque Center
Wed 05:37:35 PM 31.7664 -106.5858 151° Southeast 236 272 7,100 -726 Descending Albuquerque Center
Wed 05:38:37 PM 31.7475 -106.5219 109° East 200 230 6,300 -892 Descending Albuquerque Center
Wed 05:38:49 PM 31.7439 -106.5047 104° East 179 206 6,000 -1,100 Descending Albuquerque Center
Wed 05:39:37 PM 31.7558 -106.4644 71° East 162 186 5,200 -874 Descending Albuquerque Center
Wed 05:40:32 PM 31.7792 -106.4286 53° Northeast 145 167 4,500 -619 Descending Albuquerque Center
Wed 05:41:43 PM 31.8111 -106.3847 49° Northeast 153 176 3,900 -507 Descending Albuquerque Center
Wed 05:43:00 PM 31.8072 -106.3764 North  Level Estimated
Wed 05:50:00 PM 31.8072 -106.3764 North  Level Estimated
Wed 05:51:00 PM 31.8072 -106.3764 North  Level Estimated
Wed 05:52:00 PM 31.8072 -106.3764 North  Level Estimated
Wed 05:53:00 PM 31.8072 -106.3764 North  Level Estimated

Login

Don't have an account? Register now (free) for customized features, flight alerts, and more!